Time;durP1;ratioP1;P1;durP2;ratioP2;P2;SDS_P1;SDS_P2;PMS_P1;PMS_P2;Temp;Humidity;BMP_temperature;BMP_pressure;BME280_temperature;BME280_humidity;BME280_pressure;Samples;Min_cycle;Max_cycle;Signal;HPM_P1;HPM_P2
2022/10/09 00:01:37;;;;;;;8.15;2.90;;;;;;;9.10;73.64;100229.09;6067556;23;20031;-80
2022/10/09 00:04:04;;;;;;;6.72;3.05;;;;;;;9.16;73.31;100240.38;6075916;23;20457;-80
2022/10/09 00:06:34;;;;;;;8.65;2.80;;;;;;;9.15;73.42;100233.44;6024953;23;20106;-80
2022/10/09 00:09:01;;;;;;;8.23;3.05;;;;;;;9.12;73.51;100230.00;6047164;23;20025;-79
2022/10/09 00:11:28;;;;;;;6.93;2.88;;;;;;;8.72;73.38;100160.59;6075089;23;20119;-78
2022/10/09 00:13:55;;;;;;;8.65;2.95;;;;;;;9.12;73.59;100235.19;6051075;23;20023;-79
2022/10/09 00:16:24;;;;;;;5.20;2.35;;;;;;;9.11;73.74;100233.44;6075416;23;20030;-80
2022/10/09 00:18:52;;;;;;;6.95;2.97;;;;;;;8.95;73.92;100207.41;6052265;23;20023;-78
2022/10/09 00:21:21;;;;;;;6.60;2.83;;;;;;;9.11;73.99;100225.66;6048751;23;20002;-79
2022/10/09 00:23:48;;;;;;;7.50;2.67;;;;;;;9.11;74.10;100223.06;6094691;23;20011;-80
2022/10/09 00:26:15;;;;;;;7.07;2.92;;;;;;;9.00;73.59;100207.44;6067615;23;20023;-80
2022/10/09 00:28:41;;;;;;;7.22;2.67;;;;;;;8.92;73.76;100197.03;6044334;23;20050;-79
2022/10/09 00:31:09;;;;;;;6.20;2.50;;;;;;;9.05;73.89;100218.69;6018917;23;20015;-79
2022/10/09 00:33:36;;;;;;;6.97;2.70;;;;;;;9.04;73.94;100216.97;6043056;23;20053;-80
2022/10/09 00:36:08;;;;;;;6.53;2.80;;;;;;;9.02;73.88;100216.97;6069416;23;20019;-79
2022/10/09 00:38:34;;;;;;;6.43;2.50;;;;;;;9.02;74.15;100214.34;6044689;23;20107;-79
2022/10/09 00:41:00;;;;;;;7.57;2.58;;;;;;;9.02;74.17;100216.97;6047641;23;20026;-79
2022/10/09 00:43:39;;;;;;;5.63;3.08;;;;;;;8.99;74.38;100206.56;6069202;23;20014;-80
2022/10/09 00:46:13;;;;;;;6.72;2.55;;;;;;;8.96;74.25;100203.94;6044242;23;20103;-79
2022/10/09 00:48:39;;;;;;;6.07;2.60;;;;;;;8.89;73.82;100195.28;6066371;23;20101;-79
2022/10/09 00:51:05;;;;;;;4.82;2.63;;;;;;;8.93;74.03;100198.75;6044589;23;20041;-80
2022/10/09 00:53:31;;;;;;;6.47;2.65;;;;;;;8.98;74.44;100212.59;6042815;23;20169;-78
2022/10/09 00:55:57;;;;;;;6.03;2.55;;;;;;;8.91;74.28;100202.19;6054657;23;20023;-80
2022/10/09 00:58:24;;;;;;;6.47;2.80;;;;;;;8.82;74.43;100182.25;6075401;23;20050;-78
2022/10/09 01:00:51;;;;;;;7.05;2.88;;;;;;;8.88;74.39;100197.88;6068431;23;20027;-79
2022/10/09 01:03:18;;;;;;;9.70;2.90;;;;;;;8.87;74.20;100203.91;6042251;23;20011;-80
2022/10/09 01:05:47;;;;;;;5.97;2.55;;;;;;;8.87;74.61;100197.00;6042391;23;20360;-80
2022/10/09 01:08:24;;;;;;;5.13;2.55;;;;;;;8.80;74.25;100200.44;6044168;23;20051;-79
2022/10/09 01:11:08;;;;;;;6.70;3.17;;;;;;;8.83;74.75;100200.44;6047609;23;20106;-80
2022/10/09 01:14:08;;;;;;;7.68;2.78;;;;;;;8.82;74.78;100200.44;6041259;23;20026;-79
2022/10/09 01:17:39;;;;;;;7.97;2.70;;;;;;;8.74;74.46;100190.88;6068347;23;20050;-78
2022/10/09 01:20:25;;;;;;;4.78;2.63;;;;;;;8.79;74.49;100197.81;5997832;23;20354;-79
2022/10/09 01:23:00;;;;;;;7.28;3.13;;;;;;;8.75;74.59;100191.75;5984238;23;20016;-80
2022/10/09 01:25:49;;;;;;;5.22;3.10;;;;;;;8.71;74.63;100197.78;6047090;23;20105;-79
2022/10/09 01:28:19;;;;;;;6.97;2.80;;;;;;;8.74;74.92;100195.22;6067473;23;20034;-80
2022/10/09 01:30:46;;;;;;;7.13;2.75;;;;;;;8.73;74.54;100193.47;6042414;23;20022;-79
2022/10/09 01:33:14;;;;;;;4.95;3.17;;;;;;;8.70;75.30;100191.75;6041990;23;20019;-79
2022/10/09 01:35:43;;;;;;;9.05;3.08;;;;;;;8.69;74.61;100187.41;6066846;23;20166;-79
2022/10/09 01:38:10;;;;;;;6.90;2.60;;;;;;;8.63;75.08;100176.09;6042236;23;20062;-79
2022/10/09 01:40:36;;;;;;;6.50;2.95;;;;;;;8.68;74.50;100189.97;6018286;23;20022;-79
2022/10/09 01:43:02;;;;;;;8.95;2.90;;;;;;;8.65;75.05;100190.84;6043507;23;20030;-80
2022/10/09 01:45:42;;;;;;;5.20;2.83;;;;;;;8.65;74.87;100190.84;6077158;23;20043;-80
2022/10/09 01:48:16;;;;;;;5.13;2.72;;;;;;;8.63;74.99;100189.97;6092715;23;20010;-79
2022/10/09 01:50:44;;;;;;;9.98;2.95;;;;;;;8.63;75.08;100186.47;6070153;23;20007;-79
2022/10/09 01:53:18;;;;;;;6.35;2.90;;;;;;;8.59;75.26;100183.91;6065401;23;20023;-78
2022/10/09 01:56:12;;;;;;;4.88;2.80;;;;;;;8.63;75.19;100189.06;6063511;23;20014;-80
2022/10/09 01:58:43;;;;;;;5.78;3.28;;;;;;;8.60;75.40;100182.16;6068023;23;20113;-78
2022/10/09 02:01:15;;;;;;;9.70;3.13;;;;;;;8.56;75.51;100190.78;6050114;23;20037;-79
2022/10/09 02:03:45;;;;;;;7.25;3.00;;;;;;;8.56;75.23;100185.59;6068039;23;20025;-80
2022/10/09 02:06:13;;;;;;;8.93;2.80;;;;;;;8.56;75.46;100170.91;6067809;23;20041;-78
2022/10/09 02:08:42;;;;;;;10.07;3.10;;;;;;;8.52;75.06;100173.47;6067447;23;20023;-78
2022/10/09 02:11:10;;;;;;;7.75;3.00;;;;;;;8.56;75.42;100168.31;6018173;23;20094;-80
2022/10/09 02:13:37;;;;;;;5.65;3.03;;;;;;;8.56;75.51;100170.03;6041614;23;20022;-78
2022/10/09 02:16:39;;;;;;;6.45;3.35;;;;;;;8.57;75.65;100166.56;6026016;23;20018;-80
2022/10/09 02:19:30;;;;;;;8.73;3.22;;;;;;;8.57;75.62;100169.16;6041726;23;20026;-79
2022/10/09 02:22:10;;;;;;;9.93;3.60;;;;;;;8.57;75.48;100167.47;6040791;23;20021;-79
2022/10/09 02:24:38;;;;;;;11.27;3.08;;;;;;;8.57;75.40;100166.56;6066831;23;20022;-79
2022/10/09 02:27:06;;;;;;;8.05;3.00;;;;;;;8.56;75.42;100159.66;6073344;23;20023;-79
2022/10/09 02:29:32;;;;;;;6.78;2.97;;;;;;;8.47;75.52;100139.69;6042744;23;20018;-79
2022/10/09 02:31:58;;;;;;;6.22;2.90;;;;;;;8.60;75.55;100164.00;6017906;23;20364;-79
2022/10/09 02:34:24;;;;;;;9.15;3.00;;;;;;;8.56;75.58;100155.34;6041586;23;20046;-79
2022/10/09 02:36:50;;;;;;;7.43;3.38;;;;;;;8.61;75.60;100165.75;6041596;23;20484;-79
2022/10/09 02:39:17;;;;;;;6.93;3.13;;;;;;;8.59;75.51;100160.56;6040719;23;20445;-79
2022/10/09 02:41:43;;;;;;;5.90;3.08;;;;;;;8.63;75.52;100155.34;6065950;23;20095;-79
2022/10/09 02:44:09;;;;;;;7.97;2.97;;;;;;;8.62;75.68;100154.50;6040587;23;20449;-78
2022/10/09 02:46:37;;;;;;;4.35;2.72;;;;;;;8.60;75.29;100161.41;6064679;23;20022;-79
2022/10/09 02:49:04;;;;;;;7.07;3.00;;;;;;;8.53;75.76;100138.88;6066176;23;20025;-78
2022/10/09 02:51:30;;;;;;;3.90;2.63;;;;;;;8.53;75.98;100144.06;6041033;23;20041;-78
2022/10/09 02:53:58;;;;;;;6.07;2.63;;;;;;;8.48;75.75;100135.38;6066481;23;20445;-79
2022/10/09 02:56:25;;;;;;;9.18;2.53;;;;;;;8.47;75.64;100124.13;6041498;23;20018;-79
2022/10/09 02:58:51;;;;;;;5.03;3.13;;;;;;;8.55;75.81;100131.97;6040880;23;20025;-79
2022/10/09 03:01:17;;;;;;;6.82;2.63;;;;;;;8.53;75.61;100138.88;6016572;23;20410;-79
2022/10/09 03:03:44;;;;;;;6.68;2.95;;;;;;;8.53;75.77;100133.69;6066616;23;20057;-80
2022/10/09 03:06:15;;;;;;;6.28;2.58;;;;;;;8.51;75.56;100130.22;6066013;23;20027;-80
2022/10/09 03:08:44;;;;;;;7.18;2.70;;;;;;;8.52;75.98;100121.59;6041332;23;20021;-80
2022/10/09 03:11:10;;;;;;;11.45;2.83;;;;;;;8.53;76.11;100120.72;6041220;23;20041;-79
2022/10/09 03:13:40;;;;;;;8.48;3.03;;;;;;;8.47;75.92;100111.16;6043907;23;20503;-82
2022/10/09 03:16:18;;;;;;;8.45;2.85;;;;;;;8.50;75.62;100118.13;6041400;23;20022;-78
2022/10/09 03:18:45;;;;;;;5.78;2.78;;;;;;;8.49;75.95;100113.81;6018758;23;20018;-80
2022/10/09 03:21:14;;;;;;;5.35;2.50;;;;;;;8.47;75.89;100097.34;6041648;23;20026;-81
2022/10/09 03:23:41;;;;;;;6.47;2.95;;;;;;;8.52;75.80;100111.22;6049028;23;20022;-79
2022/10/09 03:26:09;;;;;;;7.00;2.33;;;;;;;8.46;75.89;100101.66;6046379;23;20065;-79
2022/10/09 03:28:38;;;;;;;5.57;2.78;;;;;;;8.43;75.83;100092.13;6073203;23;20087;-80
2022/10/09 03:31:05;;;;;;;7.20;2.90;;;;;;;8.51;75.77;100109.47;6066631;23;20007;-80
2022/10/09 03:33:32;;;;;;;6.47;2.80;;;;;;;8.52;75.88;100106.03;6045216;23;20049;-79
2022/10/09 03:35:58;;;;;;;6.65;2.80;;;;;;;8.43;75.86;100093.84;6046331;23;20027;-79
2022/10/09 03:38:24;;;;;;;4.43;3.08;;;;;;;8.56;76.09;100105.19;6040360;23;20421;-80
2022/10/09 03:40:51;;;;;;;5.00;2.50;;;;;;;8.56;75.86;100103.47;6041745;23;20033;-79
2022/10/09 03:43:17;;;;;;;4.60;2.85;;;;;;;8.42;75.94;100076.56;6042653;23;20011;-80
2022/10/09 03:45:43;;;;;;;8.73;2.67;;;;;;;8.55;76.02;100087.88;6074497;23;20022;-79
2022/10/09 03:48:12;;;;;;;6.70;3.03;;;;;;;8.68;76.05;100099.19;6043721;23;20025;-80
2022/10/09 03:50:40;;;;;;;4.35;2.60;;;;;;;8.64;76.07;100085.34;6023441;23;20019;-80
2022/10/09 03:53:08;;;;;;;4.28;2.50;;;;;;;8.77;75.77;100104.41;6072702;23;20023;-79
2022/10/09 03:55:34;;;;;;;5.63;2.60;;;;;;;8.85;76.19;100081.06;6045798;23;20073;-80
2022/10/09 03:58:00;;;;;;;4.40;2.60;;;;;;;8.80;76.12;100065.50;6070739;23;20034;-79
2022/10/09 04:00:28;;;;;;;7.15;2.60;;;;;;;8.77;75.80;100038.66;6073694;23;20361;-79
2022/10/09 04:02:55;;;;;;;5.72;2.80;;;;;;;9.05;75.88;100057.72;6058878;23;20015;-80
2022/10/09 04:05:22;;;;;;;6.93;2.45;;;;;;;9.15;75.72;100056.91;6056590;23;20015;-79
2022/10/09 04:07:51;;;;;;;4.63;2.40;;;;;;;9.45;75.63;100075.97;6051096;23;20099;-80
2022/10/09 04:10:18;;;;;;;9.70;2.40;;;;;;;9.61;75.33;100065.56;6071400;23;20029;-80
2022/10/09 04:12:45;;;;;;;6.22;2.70;;;;;;;9.63;75.25;100041.31;5997780;23;20346;-81
2022/10/09 04:15:13;;;;;;;5.68;2.60;;;;;;;9.77;75.46;100035.25;6043206;23;20030;-79
2022/10/09 04:17:46;;;;;;;6.63;3.35;;;;;;;10.03;75.00;100029.13;6043676;23;20023;-81
2022/10/09 04:20:13;;;;;;;9.48;2.83;;;;;;;10.50;74.97;100038.47;6040777;23;20070;-81
2022/10/09 04:22:42;;;;;;;8.00;2.50;;;;;;;10.74;74.04;100002.78;6040835;23;20122;-82
2022/10/09 04:25:09;;;;;;;4.90;2.45;;;;;;;11.73;73.73;100056.72;6066055;23;20022;-80
2022/10/09 04:27:43;;;;;;;4.90;2.35;;;;;;;12.37;72.98;100014.31;6043600;23;20479;-80
2022/10/09 04:30:11;;;;;;;5.25;2.47;;;;;;;13.16;71.83;100051.50;6043219;23;20461;-79
2022/10/09 04:32:39;;;;;;;5.93;2.33;;;;;;;13.13;71.15;100047.19;6020197;23;20070;-79
2022/10/09 04:36:07;;;;;;;5.22;2.42;;;;;;;12.12;69.89;99930.28;6034206;23;20026;-80
2022/10/09 04:39:04;;;;;;;3.88;2.40;;;;;;;12.45;69.71;99975.09;6009969;23;20105;-80
2022/10/09 04:41:30;;;;;;;5.45;2.50;;;;;;;12.95;70.03;100025.69;6070861;23;20030;-80
2022/10/09 04:43:56;;;;;;;5.13;2.20;;;;;;;13.11;68.85;100026.31;6098000;23;20014;-79
2022/10/09 04:46:28;;;;;;;4.60;2.47;;;;;;;13.32;68.42;100024.25;6099228;23;20019;-80
2022/10/09 04:48:55;;;;;;;6.90;2.40;;;;;;;13.33;67.51;100031.19;6050028;23;20073;-78
2022/10/09 04:51:21;;;;;;;6.28;2.33;;;;;;;13.07;67.13;100032.47;6098877;23;20018;-80
2022/10/09 04:53:47;;;;;;;4.45;2.30;;;;;;;12.98;66.88;100021.28;6073692;23;20025;-79
2022/10/09 04:56:22;;;;;;;3.80;2.22;;;;;;;13.23;66.43;100025.25;6099305;23;20464;-80
2022/10/09 04:58:50;;;;;;;9.18;2.47;;;;;;;13.46;65.95;100017.97;6075640;23;20023;-80
2022/10/09 05:01:21;;;;;;;5.63;2.20;;;;;;;14.12;65.74;100021.94;6100629;23;20057;-80
2022/10/09 05:03:53;;;;;;;5.72;2.13;;;;;;;14.40;65.11;99996.97;6077767;23;20482;-80
2022/10/09 05:06:40;;;;;;;6.80;2.67;;;;;;;14.59;64.46;100026.22;6082839;23;20022;-80
2022/10/09 05:09:07;;;;;;;8.27;2.72;;;;;;;14.27;63.31;100006.81;6078674;23;20029;-78
2022/10/09 05:11:33;;;;;;;5.32;2.50;;;;;;;14.46;62.96;100021.25;6100922;23;20018;-80
2022/10/09 05:14:02;;;;;;;5.47;2.40;;;;;;;15.06;62.94;100021.69;6074064;23;20022;-78
2022/10/09 05:16:30;;;;;;;6.72;3.05;;;;;;;15.45;61.45;99910.59;6107436;23;20042;-78
2022/10/09 05:18:58;;;;;;;6.35;2.60;;;;;;;16.70;60.24;100010.28;6126487;23;20093;-78
2022/10/09 05:21:25;;;;;;;7.35;2.70;;;;;;;17.27;58.66;100003.25;6100327;23;20086;-79
2022/10/09 05:23:52;;;;;;;5.47;2.53;;;;;;;17.47;58.28;99970.13;6077843;23;20040;-81
2022/10/09 05:26:21;;;;;;;4.60;2.45;;;;;;;18.19;57.31;99990.41;6102500;23;20022;-79
2022/10/09 05:28:48;;;;;;;5.80;2.42;;;;;;;19.00;56.34;99994.34;6078023;23;20022;-79
2022/10/09 05:31:26;;;;;;;4.85;2.42;;;;;;;19.54;53.63;99982.38;6099159;23;20096;-80
2022/10/09 05:33:54;;;;;;;7.40;2.85;;;;;;;19.69;53.14;99980.03;6099065;23;20017;-80
2022/10/09 05:36:20;;;;;;;7.43;2.63;;;;;;;19.78;50.99;99984.03;6098937;23;20218;-81
2022/10/09 05:38:47;;;;;;;6.82;2.63;;;;;;;19.94;50.90;99960.47;6099574;23;20130;-81
2022/10/09 05:41:15;;;;;;;8.02;2.70;;;;;;;20.69;49.97;99971.94;6130909;23;20025;-83
2022/10/09 05:43:43;;;;;;;6.82;3.10;;;;;;;21.52;49.27;99966.97;6052222;23;20065;-81
2022/10/09 05:46:15;;;;;;;8.15;3.30;;;;;;;22.45;47.65;99969.16;6104055;23;20022;-82
2022/10/09 05:48:44;;;;;;;5.60;2.65;;;;;;;22.73;45.23;99957.00;6103910;23;20475;-83
2022/10/09 05:51:13;;;;;;;6.75;2.90;;;;;;;22.71;44.68;99957.09;6104165;23;20337;-82
2022/10/09 05:53:41;;;;;;;10.43;3.22;;;;;;;22.50;43.34;99931.81;6104614;23;20312;-79
2022/10/09 05:56:17;;;;;;;7.32;2.70;;;;;;;23.28;43.30;99960.06;6102315;23;20109;-80
2022/10/09 05:58:50;;;;;;;4.88;2.70;;;;;;;24.05;42.27;99955.41;6102851;23;20066;-81
2022/10/09 06:01:17;;;;;;;7.15;2.90;;;;;;;24.89;42.10;99962.53;6102542;23;20022;-82
2022/10/09 06:03:50;;;;;;;6.68;2.70;;;;;;;25.46;39.35;99949.88;6078102;23;20448;-83
2022/10/09 06:06:18;;;;;;;6.20;2.58;;;;;;;25.43;38.69;99942.94;6130063;23;20021;-82
2022/10/09 06:08:47;;;;;;;5.55;2.67;;;;;;;25.61;37.92;99946.13;6129290;23;20021;-80
2022/10/09 06:11:31;;;;;;;4.85;2.78;;;;;;;25.95;37.76;99945.56;6081082;23;20026;-79
2022/10/09 06:14:03;;;;;;;3.70;2.83;;;;;;;26.33;36.65;99957.13;6120620;23;20005;-82
2022/10/09 06:16:34;;;;;;;5.80;2.88;;;;;;;26.30;36.94;99951.06;6122915;23;20024;-81
2022/10/09 06:19:01;;;;;;;;;;;;;;;26.34;35.07;99964.19;6123089;23;20005;-81
2022/10/09 06:21:27;;;;;;;5.90;2.70;;;;;;;26.09;36.99;99949.91;6150660;23;19919;-83
2022/10/09 06:23:59;;;;;;;4.72;2.60;;;;;;;25.45;36.51;99823.84;6111288;23;20945;-81
2022/10/09 06:26:30;;;;;;;4.18;2.50;;;;;;;26.45;36.02;99945.59;6064673;23;20014;-81
2022/10/09 06:28:58;;;;;;;6.22;2.42;;;;;;;26.91;34.69;99944.00;6113507;23;20046;-81
2022/10/09 06:31:37;;;;;;;6.70;3.10;;;;;;;27.16;34.40;99929.63;6135905;23;20026;-81
2022/10/09 06:34:33;;;;;;;5.68;2.58;;;;;;;27.65;34.82;99917.00;6043755;23;20113;-81
2022/10/09 06:36:59;;;;;;;6.93;3.05;;;;;;;27.51;33.46;99941.25;6060192;23;20019;-80
2022/10/09 06:39:25;;;;;;;5.03;2.67;;;;;;;27.89;32.59;99917.81;6040344;23;20011;-81
2022/10/09 06:41:57;;;;;;;5.47;3.03;;;;;;;28.30;31.87;99927.03;6014980;23;20003;-83
2022/10/09 06:44:44;;;;;;;6.82;2.65;;;;;;;28.54;32.33;99909.94;6045892;23;20074;-80
2022/10/09 06:47:10;;;;;;;5.00;2.63;;;;;;;28.24;32.05;99903.47;6043301;23;20019;-80
2022/10/09 06:49:36;;;;;;;5.40;2.80;;;;;;;28.42;31.77;99909.13;6040084;23;20019;-81
2022/10/09 06:52:02;;;;;;;3.47;2.50;;;;;;;28.55;31.64;99888.41;6039021;23;20019;-81
2022/10/09 06:54:29;;;;;;;5.80;2.70;;;;;;;28.96;30.57;99898.47;6014165;23;20055;-82
2022/10/09 06:56:55;;;;;;;4.25;2.53;;;;;;;28.98;30.51;99885.81;6013866;23;20019;-82
2022/10/09 06:59:23;;;;;;;5.68;2.70;;;;;;;29.86;31.06;99896.13;6046333;23;20038;-81
2022/10/09 07:01:49;;;;;;;4.03;2.50;;;;;;;30.74;29.39;99922.31;6047329;23;20063;-82
2022/10/09 07:04:17;;;;;;;5.03;2.72;;;;;;;30.25;29.41;99833.66;6082884;23;20026;-82
2022/10/09 07:06:46;;;;;;;6.57;2.60;;;;;;;29.78;28.91;99829.78;6108318;23;20013;-82
2022/10/09 07:09:19;;;;;;;5.20;2.63;;;;;;;30.57;29.05;99884.41;6082658;23;20022;-84
2022/10/09 07:11:55;;;;;;;8.65;2.80;;;;;;;30.87;28.73;99788.56;6088733;23;20026;-84
2022/10/09 07:14:24;;;;;;;7.85;2.67;;;;;;;31.53;27.35;99910.44;6089505;23;20058;-81
2022/10/09 07:16:54;;;;;;;6.70;2.72;;;;;;;31.54;27.75;99913.97;6079724;23;20024;-83
2022/10/09 07:19:20;;;;;;;8.70;2.75;;;;;;;31.53;27.96;99880.88;6134497;23;20025;-81
2022/10/09 07:21:48;;;;;;;3.90;2.58;;;;;;;30.94;27.34;99848.78;6089277;23;20033;-82
2022/10/09 07:24:15;;;;;;;7.40;2.70;;;;;;;30.61;27.66;99918.06;6127356;23;20013;-82
2022/10/09 07:26:48;;;;;;;8.50;2.60;;;;;;;30.88;27.15;99864.63;6129263;23;20101;-82
2022/10/09 07:29:16;;;;;;;4.85;2.70;;;;;;;31.67;26.67;99892.97;6102798;23;20041;-82
2022/10/09 07:31:45;;;;;;;6.20;2.55;;;;;;;31.78;26.71;99883.91;6077183;23;20018;-84
2022/10/09 07:34:15;;;;;;;6.72;2.80;;;;;;;32.81;25.39;99863.03;6079817;23;20535;-81
2022/10/09 07:36:41;;;;;;;5.70;2.45;;;;;;;32.58;25.71;99879.69;6108288;23;20053;-82
2022/10/09 07:42:23;;;;;;;5.30;3.83;;;;;;;32.19;25.62;99826.16;6101583;23;20014;-82
2022/10/09 07:44:51;;;;;;;5.75;2.70;;;;;;;32.59;26.59;99876.00;6049879;23;20039;-82
2022/10/09 07:47:20;;;;;;;3.25;2.55;;;;;;;33.32;25.53;99880.25;6079686;23;20022;-83
2022/10/09 07:49:46;;;;;;;5.38;2.63;;;;;;;33.70;24.98;99873.72;6073121;23;20038;-80
2022/10/09 07:52:12;;;;;;;4.47;2.58;;;;;;;33.46;24.50;99867.19;6098790;23;20620;-83
2022/10/09 07:54:45;;;;;;;4.75;2.55;;;;;;;33.58;24.10;99854.28;6074080;23;20037;-81
2022/10/09 07:57:14;;;;;;;5.28;2.42;;;;;;;34.00;24.58;99869.63;6097986;23;20172;-84
2022/10/09 07:59:40;;;;;;;5.25;2.90;;;;;;;34.74;23.25;99881.53;6070824;23;20018;-82
2022/10/09 08:02:07;;;;;;;7.80;2.95;;;;;;;34.47;24.01;99887.13;6073263;23;20025;-81
2022/10/09 08:04:36;;;;;;;5.40;2.88;;;;;;;33.59;24.58;99867.63;6072698;23;20010;-84
2022/10/09 08:07:04;;;;;;;10.18;2.60;;;;;;;33.27;24.29;99871.78;6099965;23;20024;-83
2022/10/09 08:09:36;;;;;;;3.05;2.70;;;;;;;33.22;24.64;99874.13;6102586;23;20069;-82
2022/10/09 08:12:02;;;;;;;6.55;2.63;;;;;;;33.24;23.81;99806.59;6093287;23;20018;-84
2022/10/09 08:14:31;;;;;;;8.10;2.80;;;;;;;33.93;23.77;99793.88;6097926;23;20026;-85
2022/10/09 08:17:08;;;;;;;5.05;2.50;;;;;;;34.32;23.95;99805.91;6056837;23;20033;-83
2022/10/09 08:19:41;;;;;;;5.57;2.58;;;;;;;34.69;23.29;99825.34;6056713;23;20037;-87
2022/10/09 08:22:07;;;;;;;5.38;2.50;;;;;;;33.69;23.22;99745.25;6103131;23;20015;-85
2022/10/09 08:24:34;;;;;;;9.55;2.53;;;;;;;33.75;23.44;99728.41;6061473;23;20029;-84
2022/10/09 08:27:22;;;;;;;5.38;2.70;;;;;;;34.19;22.55;99794.78;6065404;23;20018;-83
2022/10/09 08:29:48;;;;;;;4.80;2.70;;;;;;;34.80;22.69;99814.16;6082920;23;20046;-86
2022/10/09 08:32:17;;;;;;;3.33;2.53;;;;;;;35.33;22.54;99811.00;6077089;23;20022;-83
2022/10/09 08:34:52;;;;;;;9.63;2.70;;;;;;;35.62;22.16;99847.44;6080685;23;20033;-85
2022/10/09 08:37:18;;;;;;;5.22;2.63;;;;;;;35.51;22.50;99818.06;6107181;23;20018;-85
2022/10/09 08:39:49;;;;;;;8.20;3.20;;;;;;;35.04;22.54;99855.69;6129558;23;20460;-82
2022/10/09 08:42:45;;;;;;;5.30;2.78;;;;;;;35.24;21.82;99761.53;6126206;23;20029;-80
2022/10/09 08:45:18;;;;;;;5.40;2.80;;;;;;;36.08;21.30;99791.72;6101519;23;20049;-83
2022/10/09 08:48:03;;;;;;;6.97;2.17;;;;;;;35.63;21.57;99786.03;6102795;23;20022;-84
2022/10/09 08:50:35;;;;;;;5.07;2.47;;;;;;;35.76;20.96;99820.63;6126097;23;20022;-82
2022/10/09 08:53:03;;;;;;;9.95;2.83;;;;;;;34.78;22.70;99848.59;6109036;23;20073;-82
2022/10/09 08:55:44;;;;;;;4.03;2.30;;;;;;;33.90;22.33;99794.22;6111453;23;20024;-81
2022/10/09 08:58:14;;;;;;;;;;;;;;;34.46;23.71;99835.97;6135490;23;20065;-81
2022/10/09 09:01:03;;;;;;;6.20;2.45;;;;;;;34.68;24.82;99840.69;6106411;23;19991;-82
2022/10/09 09:03:56;;;;;;;7.82;2.60;;;;;;;34.75;23.52;99829.19;6119966;23;20017;-83
2022/10/09 09:06:46;;;;;;;5.57;2.40;;;;;;;34.98;22.97;99835.63;6111959;23;20127;-83
2022/10/09 09:09:39;;;;;;;3.85;2.35;;;;;;;35.33;22.59;99794.78;6116321;23;20018;-85
2022/10/09 09:12:22;;;;;;;6.97;2.45;;;;;;;36.17;22.77;99820.41;6085991;23;20094;-83
2022/10/09 09:15:17;;;;;;;3.78;2.42;;;;;;;35.99;21.48;99815.28;6106637;23;20028;-82
2022/10/09 09:18:22;;;;;;;4.53;2.70;;;;;;;35.67;20.87;99828.78;6080748;23;20080;-83
2022/10/09 09:20:52;;;;;;;5.32;2.88;;;;;;;35.91;22.70;99834.25;6106711;23;20022;-83
2022/10/09 09:23:26;;;;;;;3.63;2.40;;;;;;;36.02;22.01;99814.91;6113464;23;20022;-83
2022/10/09 09:25:56;;;;;;;7.05;2.53;;;;;;;35.12;23.88;99766.47;6114880;23;20044;-84
2022/10/09 09:28:33;;;;;;;6.75;2.70;;;;;;;34.42;22.74;99746.31;6126208;23;20002;-83
2022/10/09 09:31:05;;;;;;;4.97;2.30;;;;;;;34.26;23.14;99776.03;6126558;23;20060;-83
2022/10/09 09:33:37;;;;;;;6.03;2.40;;;;;;;34.29;22.63;99835.94;6121136;23;20010;-85
2022/10/09 09:36:25;;;;;;;5.32;2.90;;;;;;;33.94;22.53;99833.34;6127618;23;20022;-84
2022/10/09 09:38:55;;;;;;;3.92;2.65;;;;;;;33.84;22.46;99778.69;6001531;23;20017;-83
2022/10/09 09:41:30;;;;;;;4.03;2.80;;;;;;;34.53;21.81;99780.28;6103081;23;20203;-85
2022/10/09 09:44:02;;;;;;;5.70;2.63;;;;;;;34.14;21.43;99691.88;6078396;23;20044;-84
2022/10/09 09:46:37;;;;;;;7.05;2.80;;;;;;;34.12;21.41;99756.78;6054845;23;20025;-85
2022/10/09 09:49:50;;;;;;;4.38;2.80;;;;;;;34.72;21.96;99821.44;6103071;23;20018;-82
2022/10/09 09:52:28;;;;;;;3.05;2.10;;;;;;;33.63;22.16;99771.03;6108592;23;20030;-83
2022/10/09 09:54:58;;;;;;;4.25;2.55;;;;;;;33.49;22.47;99818.34;6138003;23;20427;-85
2022/10/09 09:57:44;;;;;;;6.75;2.75;;;;;;;31.47;21.96;99778.47;6112790;23;20096;-84
2022/10/09 10:01:29;;;;;;;4.45;2.40;;;;;;;28.43;24.77;99723.53;6083575;23;20028;-83
2022/10/09 10:04:02;;;;;;;5.85;2.83;;;;;;;27.06;26.34;99744.44;6128395;23;20018;-84
2022/10/09 10:06:42;;;;;;;4.97;2.40;;;;;;;26.90;27.05;99831.06;6100741;23;20430;-85
2022/10/09 10:09:24;;;;;;;4.55;2.33;;;;;;;25.22;27.73;99749.09;6081895;23;20039;-86
2022/10/09 10:11:58;;;;;;;5.55;2.60;;;;;;;24.22;29.19;99754.09;6109641;23;20021;-83
2022/10/09 10:15:00;;;;;;;4.78;2.20;;;;;;;23.43;30.58;99746.75;6135046;23;20021;-85
2022/10/09 10:17:42;;;;;;;5.00;2.47;;;;;;;23.48;30.13;99806.69;6127167;23;20018;-85
2022/10/09 10:20:24;;;;;;;5.72;2.17;;;;;;;22.79;31.58;99815.22;6100584;23;20014;-84
2022/10/09 10:23:08;;;;;;;5.47;2.60;;;;;;;22.03;32.13;99819.56;6077785;23;20014;-86
2022/10/09 10:25:40;;;;;;;7.50;2.85;;;;;;;21.02;33.57;99714.72;6101482;23;20021;-86
2022/10/09 10:28:16;;;;;;;5.60;2.70;;;;;;;21.45;33.89;99806.78;6100667;23;20014;-83
2022/10/09 10:30:44;;;;;;;5.03;2.45;;;;;;;20.71;34.63;99755.94;6077495;23;20018;-87
2022/10/09 10:33:32;;;;;;;8.30;3.00;;;;;;;20.84;34.97;99802.97;6101772;23;20017;-85
2022/10/09 10:36:10;;;;;;;7.32;2.47;;;;;;;19.47;35.26;99614.22;6076654;23;20556;-85
2022/10/09 10:38:54;;;;;;;6.15;2.33;;;;;;;19.12;35.49;99600.91;6102173;23;20018;-85
2022/10/09 10:41:31;;;;;;;8.43;2.60;;;;;;;19.28;36.08;99645.88;6098207;23;20097;-85
2022/10/09 10:44:08;;;;;;;3.78;1.90;;;;;;;20.05;36.00;99791.81;6099330;23;20026;-83
2022/10/09 10:46:59;;;;;;;4.70;2.72;;;;;;;19.21;36.71;99670.81;6126923;23;20018;-85
2022/10/09 10:49:32;;;;;;;7.53;2.40;;;;;;;19.47;36.74;99725.03;6102271;23;20026;-84
2022/10/09 10:52:08;;;;;;;3.72;2.30;;;;;;;19.23;37.35;99696.22;6128491;23;20104;-84
2022/10/09 10:55:08;;;;;;;5.53;2.47;;;;;;;19.79;37.19;99790.41;6102948;23;20124;-86
2022/10/09 10:58:34;;;;;;;6.57;2.95;;;;;;;19.45;37.37;99750.63;6102723;23;20018;-82
2022/10/09 11:01:18;;;;;;;3.65;2.28;;;;;;;19.65;37.75;99788.41;6105967;23;20018;-83
2022/10/09 11:03:51;;;;;;;8.32;2.60;;;;;;;19.56;38.23;99787.06;6112323;23;20030;-84
2022/10/09 11:06:46;;;;;;;4.85;2.13;;;;;;;19.49;38.38;99782.97;6134056;23;20060;-85
2022/10/09 11:09:34;;;;;;;3.47;2.00;;;;;;;19.39;37.81;99772.88;6086742;23;20050;-82
2022/10/09 11:12:39;;;;;;;5.88;2.47;;;;;;;19.27;37.84;99776.94;6109822;23;20022;-84
2022/10/09 11:15:49;;;;;;;9.27;2.63;;;;;;;19.02;38.02;99765.75;6109318;23;20029;-81
2022/10/09 11:18:43;;;;;;;5.40;1.80;;;;;;;19.03;37.85;99775.38;6103067;23;20018;-83
2022/10/09 11:21:16;;;;;;;4.25;1.75;;;;;;;19.00;37.85;99776.34;6127163;23;20049;-83
2022/10/09 11:24:01;;;;;;;3.40;1.65;;;;;;;19.07;36.99;99775.19;6100860;23;20033;-84
2022/10/09 11:26:46;;;;;;;4.97;2.30;;;;;;;19.06;36.58;99770.81;6101117;23;20241;-82
2022/10/09 11:29:44;;;;;;;3.22;1.58;;;;;;;19.07;36.37;99771.69;6101912;23;20081;-84
2022/10/09 11:32:21;;;;;;;4.15;1.80;;;;;;;18.96;36.41;99743.16;6105800;23;20044;-83
2022/10/09 11:35:02;;;;;;;6.50;1.73;;;;;;;19.08;36.44;99768.97;6101907;23;20041;-85
2022/10/09 11:37:35;;;;;;;2.85;2.00;;;;;;;19.09;36.28;99759.28;6102796;23;20042;-83
2022/10/09 11:40:20;;;;;;;;;;;;;;;19.10;36.58;99767.13;6130742;23;20025;-82
2022/10/09 11:42:57;;;;;;;5.32;2.22;;;;;;;19.02;36.72;99752.59;6105792;23;19920;-83
2022/10/09 11:45:41;;;;;;;5.22;2.10;;;;;;;19.01;36.82;99745.59;6129857;23;20028;-85
2022/10/09 11:48:16;;;;;;;3.53;1.80;;;;;;;18.98;36.63;99751.00;6130809;23;20072;-84
2022/10/09 11:51:00;;;;;;;4.50;1.95;;;;;;;18.86;36.82;99750.59;6105341;23;20401;-83
2022/10/09 11:53:29;;;;;;;4.15;1.75;;;;;;;18.78;36.90;99736.91;6114150;23;20086;-83
2022/10/09 11:56:08;;;;;;;7.55;2.17;;;;;;;18.65;36.97;99755.03;6124208;23;20089;-85
2022/10/09 11:58:37;;;;;;;3.30;1.88;;;;;;;18.65;37.02;99768.19;6097886;23;20068;-84
2022/10/09 12:01:20;;;;;;;7.60;2.10;;;;;;;18.41;37.21;99731.44;6100858;23;20065;-83
2022/10/09 12:03:59;;;;;;;2.30;1.70;;;;;;;18.40;37.77;99742.88;6151199;23;20009;-87
2022/10/09 12:06:25;;;;;;;3.67;2.03;;;;;;;18.48;37.46;99763.63;6124909;23;20090;-84
2022/10/09 12:09:06;;;;;;;2.33;1.52;;;;;;;18.40;37.69;99765.75;6123077;23;20045;-84